sensor_id;sensor_type;location;lat;lon;timestamp;temperature;humidity
10911;DHT22;5508;49.150;11.030;2022-11-20T00:00:29;0.00;99.90
10911;DHT22;5508;49.150;11.030;2022-11-20T00:03:30;0.00;99.90
10911;DHT22;5508;49.150;11.030;2022-11-20T00:06:31;-0.10;99.90
10911;DHT22;5508;49.150;11.030;2022-11-20T00:09:31;-0.10;99.90
10911;DHT22;5508;49.150;11.030;2022-11-20T00:12:32;0.00;99.90
10911;DHT22;5508;49.150;11.030;2022-11-20T00:15:33;0.00;99.90
10911;DHT22;5508;49.150;11.030;2022-11-20T00:18:34;0.00;99.90
10911;DHT22;5508;49.150;11.030;2022-11-20T00:21:34;0.00;99.90
10911;DHT22;5508;49.150;11.030;2022-11-20T00:24:35;-0.10;99.90
10911;DHT22;5508;49.150;11.030;2022-11-20T00:27:35;0.00;99.90
10911;DHT22;5508;49.150;11.030;2022-11-20T00:30:36;0.00;99.90
10911;DHT22;5508;49.150;11.030;2022-11-20T00:33:37;0.00;99.90
10911;DHT22;5508;49.150;11.030;2022-11-20T00:36:37;0.00;99.90
10911;DHT22;5508;49.150;11.030;2022-11-20T00:39:38;-0.10;99.90
10911;DHT22;5508;49.150;11.030;2022-11-20T00:42:38;0.00;99.90
10911;DHT22;5508;49.150;11.030;2022-11-20T00:45:39;0.00;99.90
10911;DHT22;5508;49.150;11.030;2022-11-20T00:48:41;0.00;99.90
10911;DHT22;5508;49.150;11.030;2022-11-20T00:51:41;0.10;99.90
10911;DHT22;5508;49.150;11.030;2022-11-20T00:54:42;0.10;99.90
10911;DHT22;5508;49.150;11.030;2022-11-20T00:57:42;0.10;99.90
10911;DHT22;5508;49.150;11.030;2022-11-20T01:00:43;0.10;99.90
10911;DHT22;5508;49.150;11.030;2022-11-20T01:03:46;0.10;99.90
10911;DHT22;5508;49.150;11.030;2022-11-20T01:06:47;0.10;99.90
10911;DHT22;5508;49.150;11.030;2022-11-20T01:09:47;0.10;99.90
10911;DHT22;5508;49.150;11.030;2022-11-20T01:12:48;0.20;99.90
10911;DHT22;5508;49.150;11.030;2022-11-20T01:16:15;0.20;99.90
10911;DHT22;5508;49.150;11.030;2022-11-20T01:19:18;0.30;99.90
10911;DHT22;5508;49.150;11.030;2022-11-20T01:22:19;0.30;99.90
10911;DHT22;5508;49.150;11.030;2022-11-20T01:25:20;0.30;99.90
10911;DHT22;5508;49.150;11.030;2022-11-20T01:28:20;0.20;99.90
10911;DHT22;5508;49.150;11.030;2022-11-20T01:31:23;0.20;99.90
10911;DHT22;5508;49.150;11.030;2022-11-20T01:34:24;0.20;99.90
10911;DHT22;5508;49.150;11.030;2022-11-20T01:37:25;0.20;99.90
10911;DHT22;5508;49.150;11.030;2022-11-20T01:40:25;0.20;99.90
10911;DHT22;5508;49.150;11.030;2022-11-20T01:43:26;0.30;99.90
10911;DHT22;5508;49.150;11.030;2022-11-20T01:46:29;0.30;99.90
10911;DHT22;5508;49.150;11.030;2022-11-20T01:49:37;0.30;99.90
10911;DHT22;5508;49.150;11.030;2022-11-20T01:52:45;0.30;99.90
10911;DHT22;5508;49.150;11.030;2022-11-20T01:55:49;0.30;99.90
10911;DHT22;5508;49.150;11.030;2022-11-20T01:58:55;0.30;99.90
10911;DHT22;5508;49.150;11.030;2022-11-20T02:01:57;0.30;99.90
10911;DHT22;5508;49.150;11.030;2022-11-20T02:05:04;0.40;99.90
10911;DHT22;5508;49.150;11.030;2022-11-20T02:08:08;0.30;99.90
10911;DHT22;5508;49.150;11.030;2022-11-20T02:11:09;0.30;99.90
10911;DHT22;5508;49.150;11.030;2022-11-20T02:14:10;0.30;99.90
10911;DHT22;5508;49.150;11.030;2022-11-20T02:17:11;0.40;99.90
10911;DHT22;5508;49.150;11.030;2022-11-20T02:20:12;0.40;99.90
10911;DHT22;5508;49.150;11.030;2022-11-20T02:26:22;0.40;99.90
10911;DHT22;5508;49.150;11.030;2022-11-20T02:29:32;0.30;99.90
10911;DHT22;5508;49.150;11.030;2022-11-20T02:32:35;0.30;99.90
10911;DHT22;5508;49.150;11.030;2022-11-20T02:35:44;0.30;99.90
10911;DHT22;5508;49.150;11.030;2022-11-20T02:38:45;0.30;99.90
10911;DHT22;5508;49.150;11.030;2022-11-20T02:41:46;0.40;99.90
10911;DHT22;5508;49.150;11.030;2022-11-20T02:44:47;0.40;99.90
10911;DHT22;5508;49.150;11.030;2022-11-20T02:47:48;0.50;99.90
10911;DHT22;5508;49.150;11.030;2022-11-20T02:50:48;0.50;99.90
10911;DHT22;5508;49.150;11.030;2022-11-20T02:53:49;0.50;99.90
10911;DHT22;5508;49.150;11.030;2022-11-20T02:56:50;0.50;99.90
10911;DHT22;5508;49.150;11.030;2022-11-20T02:59:51;0.50;99.90
10911;DHT22;5508;49.150;11.030;2022-11-20T03:02:51;0.40;99.90
10911;DHT22;5508;49.150;11.030;2022-11-20T03:05:52;0.40;99.90
10911;DHT22;5508;49.150;11.030;2022-11-20T03:08:53;0.50;99.90
10911;DHT22;5508;49.150;11.030;2022-11-20T03:11:53;0.50;99.90
10911;DHT22;5508;49.150;11.030;2022-11-20T03:14:54;0.50;99.90
10911;DHT22;5508;49.150;11.030;2022-11-20T03:17:55;0.50;99.90
10911;DHT22;5508;49.150;11.030;2022-11-20T03:20:59;0.50;99.90
10911;DHT22;5508;49.150;11.030;2022-11-20T03:23:59;0.50;99.90
10911;DHT22;5508;49.150;11.030;2022-11-20T03:27:00;0.40;99.90
10911;DHT22;5508;49.150;11.030;2022-11-20T03:30:01;0.50;99.90
10911;DHT22;5508;49.150;11.030;2022-11-20T03:33:02;0.50;99.90
10911;DHT22;5508;49.150;11.030;2022-11-20T03:36:04;0.60;99.90
10911;DHT22;5508;49.150;11.030;2022-11-20T03:39:06;0.60;99.90
10911;DHT22;5508;49.150;11.030;2022-11-20T03:42:07;0.60;99.90
10911;DHT22;5508;49.150;11.030;2022-11-20T03:45:28;0.60;99.90
10911;DHT22;5508;49.150;11.030;2022-11-20T03:48:29;0.70;99.90
10911;DHT22;5508;49.150;11.030;2022-11-20T03:51:31;0.70;99.90
10911;DHT22;5508;49.150;11.030;2022-11-20T03:54:32;0.70;99.90
10911;DHT22;5508;49.150;11.030;2022-11-20T03:57:33;0.70;99.90
10911;DHT22;5508;49.150;11.030;2022-11-20T04:00:34;0.70;99.90
10911;DHT22;5508;49.150;11.030;2022-11-20T04:03:35;0.70;99.90
10911;DHT22;5508;49.150;11.030;2022-11-20T04:06:37;0.80;99.90
10911;DHT22;5508;49.150;11.030;2022-11-20T04:09:38;0.80;99.90
10911;DHT22;5508;49.150;11.030;2022-11-20T04:12:38;0.80;99.90
10911;DHT22;5508;49.150;11.030;2022-11-20T04:15:39;0.80;99.90
10911;DHT22;5508;49.150;11.030;2022-11-20T04:18:39;0.70;99.90
10911;DHT22;5508;49.150;11.030;2022-11-20T04:21:41;0.80;99.90
10911;DHT22;5508;49.150;11.030;2022-11-20T04:24:42;0.80;99.90
10911;DHT22;5508;49.150;11.030;2022-11-20T04:27:42;0.80;99.90
10911;DHT22;5508;49.150;11.030;2022-11-20T04:30:43;0.80;99.90
10911;DHT22;5508;49.150;11.030;2022-11-20T04:33:44;0.90;99.90
10911;DHT22;5508;49.150;11.030;2022-11-20T04:36:45;1.00;99.90
10911;DHT22;5508;49.150;11.030;2022-11-20T04:39:45;1.10;99.90
10911;DHT22;5508;49.150;11.030;2022-11-20T04:42:46;1.20;99.90
10911;DHT22;5508;49.150;11.030;2022-11-20T04:45:51;1.30;99.90
10911;DHT22;5508;49.150;11.030;2022-11-20T04:48:52;1.30;99.90
10911;DHT22;5508;49.150;11.030;2022-11-20T04:51:55;1.30;99.90
10911;DHT22;5508;49.150;11.030;2022-11-20T04:54:56;1.30;99.90
10911;DHT22;5508;49.150;11.030;2022-11-20T04:57:56;1.30;99.90
10911;DHT22;5508;49.150;11.030;2022-11-20T05:01:12;1.30;99.90
10911;DHT22;5508;49.150;11.030;2022-11-20T05:04:12;1.30;99.90
10911;DHT22;5508;49.150;11.030;2022-11-20T05:07:13;1.30;99.90
10911;DHT22;5508;49.150;11.030;2022-11-20T05:10:14;1.30;99.90
10911;DHT22;5508;49.150;11.030;2022-11-20T05:13:14;1.30;99.90
10911;DHT22;5508;49.150;11.030;2022-11-20T05:16:18;1.30;99.90
10911;DHT22;5508;49.150;11.030;2022-11-20T05:19:18;1.40;99.90
10911;DHT22;5508;49.150;11.030;2022-11-20T05:22:19;1.30;99.90
10911;DHT22;5508;49.150;11.030;2022-11-20T05:25:20;1.30;99.90
10911;DHT22;5508;49.150;11.030;2022-11-20T05:28:21;1.20;99.90
10911;DHT22;5508;49.150;11.030;2022-11-20T05:31:23;1.00;99.90
10911;DHT22;5508;49.150;11.030;2022-11-20T05:34:24;1.00;99.90
10911;DHT22;5508;49.150;11.030;2022-11-20T05:37:25;1.00;99.90
10911;DHT22;5508;49.150;11.030;2022-11-20T05:40:25;1.00;99.90
10911;DHT22;5508;49.150;11.030;2022-11-20T05:43:26;1.00;99.90
10911;DHT22;5508;49.150;11.030;2022-11-20T05:46:27;1.00;99.90
10911;DHT22;5508;49.150;11.030;2022-11-20T05:49:27;0.90;99.90
10911;DHT22;5508;49.150;11.030;2022-11-20T05:52:29;0.90;99.90
10911;DHT22;5508;49.150;11.030;2022-11-20T05:55:29;1.00;99.90
10911;DHT22;5508;49.150;11.030;2022-11-20T05:58:31;1.00;99.90
10911;DHT22;5508;49.150;11.030;2022-11-20T06:01:32;1.00;99.90
10911;DHT22;5508;49.150;11.030;2022-11-20T06:04:32;1.10;99.90
10911;DHT22;5508;49.150;11.030;2022-11-20T06:07:33;1.20;99.90
10911;DHT22;5508;49.150;11.030;2022-11-20T06:10:34;1.20;99.90
10911;DHT22;5508;49.150;11.030;2022-11-20T06:13:35;1.20;99.90
10911;DHT22;5508;49.150;11.030;2022-11-20T06:16:36;1.20;99.90
10911;DHT22;5508;49.150;11.030;2022-11-20T06:19:36;1.20;99.90
10911;DHT22;5508;49.150;11.030;2022-11-20T06:22:37;1.10;99.90
10911;DHT22;5508;49.150;11.030;2022-11-20T06:25:41;1.20;99.90
10911;DHT22;5508;49.150;11.030;2022-11-20T06:28:42;1.30;99.90
10911;DHT22;5508;49.150;11.030;2022-11-20T06:31:43;1.20;99.90
10911;DHT22;5508;49.150;11.030;2022-11-20T06:34:43;1.20;99.90
10911;DHT22;5508;49.150;11.030;2022-11-20T06:37:44;1.20;99.90
10911;DHT22;5508;49.150;11.030;2022-11-20T06:40:44;1.20;99.90
10911;DHT22;5508;49.150;11.030;2022-11-20T06:43:45;1.10;99.90
10911;DHT22;5508;49.150;11.030;2022-11-20T06:46:46;1.20;99.90
10911;DHT22;5508;49.150;11.030;2022-11-20T06:49:46;1.20;99.90
10911;DHT22;5508;49.150;11.030;2022-11-20T06:52:47;1.20;99.90
10911;DHT22;5508;49.150;11.030;2022-11-20T06:55:48;1.20;99.90
10911;DHT22;5508;49.150;11.030;2022-11-20T06:58:49;1.30;99.90
10911;DHT22;5508;49.150;11.030;2022-11-20T07:01:50;1.30;99.90
10911;DHT22;5508;49.150;11.030;2022-11-20T07:04:50;1.40;99.90
10911;DHT22;5508;49.150;11.030;2022-11-20T07:07:51;1.50;99.90
10911;DHT22;5508;49.150;11.030;2022-11-20T07:10:52;1.50;99.90
10911;DHT22;5508;49.150;11.030;2022-11-20T07:13:52;1.50;99.90
10911;DHT22;5508;49.150;11.030;2022-11-20T07:16:53;1.60;99.90
10911;DHT22;5508;49.150;11.030;2022-11-20T07:19:53;1.60;99.90
10911;DHT22;5508;49.150;11.030;2022-11-20T07:22:57;1.60;99.90
10911;DHT22;5508;49.150;11.030;2022-11-20T07:26:02;1.70;99.90
10911;DHT22;5508;49.150;11.030;2022-11-20T07:29:03;1.80;99.90
10911;DHT22;5508;49.150;11.030;2022-11-20T07:32:04;1.80;99.90
10911;DHT22;5508;49.150;11.030;2022-11-20T07:35:05;1.90;99.90
10911;DHT22;5508;49.150;11.030;2022-11-20T07:38:05;2.10;99.90
10911;DHT22;5508;49.150;11.030;2022-11-20T07:41:06;2.30;99.90
10911;DHT22;5508;49.150;11.030;2022-11-20T07:44:06;2.40;99.90
10911;DHT22;5508;49.150;11.030;2022-11-20T07:47:07;2.60;99.90
10911;DHT22;5508;49.150;11.030;2022-11-20T07:50:08;2.80;99.90
10911;DHT22;5508;49.150;11.030;2022-11-20T07:53:09;2.90;99.90
10911;DHT22;5508;49.150;11.030;2022-11-20T07:56:09;3.00;99.90
10911;DHT22;5508;49.150;11.030;2022-11-20T07:59:10;3.30;99.90
10911;DHT22;5508;49.150;11.030;2022-11-20T08:02:12;3.30;99.90
10911;DHT22;5508;49.150;11.030;2022-11-20T08:05:12;3.30;99.90
10911;DHT22;5508;49.150;11.030;2022-11-20T08:08:13;3.40;99.90
10911;DHT22;5508;49.150;11.030;2022-11-20T08:11:13;3.40;99.90
10911;DHT22;5508;49.150;11.030;2022-11-20T08:14:33;3.50;99.90
10911;DHT22;5508;49.150;11.030;2022-11-20T08:17:33;3.60;99.90
10911;DHT22;5508;49.150;11.030;2022-11-20T08:20:34;3.60;99.90
10911;DHT22;5508;49.150;11.030;2022-11-20T08:23:35;3.70;99.90
10911;DHT22;5508;49.150;11.030;2022-11-20T08:26:37;3.70;99.90
10911;DHT22;5508;49.150;11.030;2022-11-20T08:29:37;3.70;99.90
10911;DHT22;5508;49.150;11.030;2022-11-20T08:32:38;3.80;99.90
10911;DHT22;5508;49.150;11.030;2022-11-20T08:35:39;3.80;99.90
10911;DHT22;5508;49.150;11.030;2022-11-20T08:38:41;3.80;99.90
10911;DHT22;5508;49.150;11.030;2022-11-20T08:41:42;3.90;99.90
10911;DHT22;5508;49.150;11.030;2022-11-20T08:44:42;3.80;99.90
10911;DHT22;5508;49.150;11.030;2022-11-20T08:47:43;3.80;99.90
10911;DHT22;5508;49.150;11.030;2022-11-20T08:50:44;3.80;99.90
10911;DHT22;5508;49.150;11.030;2022-11-20T08:53:45;3.80;99.90
10911;DHT22;5508;49.150;11.030;2022-11-20T08:56:46;3.90;99.90
10911;DHT22;5508;49.150;11.030;2022-11-20T08:59:46;3.90;99.90
10911;DHT22;5508;49.150;11.030;2022-11-20T09:02:47;3.90;99.90
10911;DHT22;5508;49.150;11.030;2022-11-20T09:05:48;3.90;99.90
10911;DHT22;5508;49.150;11.030;2022-11-20T09:08:52;4.00;99.90
10911;DHT22;5508;49.150;11.030;2022-11-20T09:11:53;4.00;99.90
10911;DHT22;5508;49.150;11.030;2022-11-20T09:14:54;4.00;99.90
10911;DHT22;5508;49.150;11.030;2022-11-20T09:17:57;3.90;99.90
10911;DHT22;5508;49.150;11.030;2022-11-20T09:20:59;3.90;99.90
10911;DHT22;5508;49.150;11.030;2022-11-20T09:24:00;4.00;99.90
10911;DHT22;5508;49.150;11.030;2022-11-20T09:27:05;4.10;99.90
10911;DHT22;5508;49.150;11.030;2022-11-20T09:30:06;3.90;99.90
10911;DHT22;5508;49.150;11.030;2022-11-20T09:33:06;4.00;99.90
10911;DHT22;5508;49.150;11.030;2022-11-20T09:36:07;4.00;99.90
10911;DHT22;5508;49.150;11.030;2022-11-20T09:39:08;4.00;99.90
10911;DHT22;5508;49.150;11.030;2022-11-20T09:42:22;4.10;99.90
10911;DHT22;5508;49.150;11.030;2022-11-20T09:55:12;4.10;99.90
10911;DHT22;5508;49.150;11.030;2022-11-20T09:58:42;4.10;99.90
10911;DHT22;5508;49.150;11.030;2022-11-20T10:01:45;4.10;99.90
10911;DHT22;5508;49.150;11.030;2022-11-20T10:05:18;4.40;99.90
10911;DHT22;5508;49.150;11.030;2022-11-20T10:12:00;4.50;99.90
10911;DHT22;5508;49.150;11.030;2022-11-20T10:15:06;4.40;99.90
10911;DHT22;5508;49.150;11.030;2022-11-20T10:25:34;4.20;99.90
10911;DHT22;5508;49.150;11.030;2022-11-20T10:32:15;4.20;99.90
10911;DHT22;5508;49.150;11.030;2022-11-20T10:38:44;4.30;99.90
10911;DHT22;5508;49.150;11.030;2022-11-20T10:41:49;4.30;99.90
10911;DHT22;5508;49.150;11.030;2022-11-20T10:45:02;4.40;99.90
10911;DHT22;5508;49.150;11.030;2022-11-20T10:48:22;4.40;99.90
10911;DHT22;5508;49.150;11.030;2022-11-20T10:54:58;4.50;99.90
10911;DHT22;5508;49.150;11.030;2022-11-20T11:01:41;4.40;99.90
10911;DHT22;5508;49.150;11.030;2022-11-20T11:04:48;4.40;99.90
10911;DHT22;5508;49.150;11.030;2022-11-20T11:07:51;4.40;99.90
10911;DHT22;5508;49.150;11.030;2022-11-20T11:10:58;4.40;99.90
10911;DHT22;5508;49.150;11.030;2022-11-20T11:14:06;4.50;99.90
10911;DHT22;5508;49.150;11.030;2022-11-20T11:17:27;4.50;99.90
10911;DHT22;5508;49.150;11.030;2022-11-20T11:20:28;4.50;99.90
10911;DHT22;5508;49.150;11.030;2022-11-20T11:26:32;4.50;99.90
10911;DHT22;5508;49.150;11.030;2022-11-20T11:29:33;4.60;99.90
10911;DHT22;5508;49.150;11.030;2022-11-20T11:32:33;4.60;99.90
10911;DHT22;5508;49.150;11.030;2022-11-20T11:35:44;4.60;99.90
10911;DHT22;5508;49.150;11.030;2022-11-20T11:38:44;4.70;99.90
10911;DHT22;5508;49.150;11.030;2022-11-20T11:41:45;4.70;99.90
10911;DHT22;5508;49.150;11.030;2022-11-20T11:44:50;4.70;99.90
10911;DHT22;5508;49.150;11.030;2022-11-20T11:48:09;4.80;99.90
10911;DHT22;5508;49.150;11.030;2022-11-20T11:51:09;4.80;99.90
10911;DHT22;5508;49.150;11.030;2022-11-20T11:54:22;4.90;99.90
10911;DHT22;5508;49.150;11.030;2022-11-20T12:00:58;5.20;99.90
10911;DHT22;5508;49.150;11.030;2022-11-20T12:07:43;5.50;99.90
10911;DHT22;5508;49.150;11.030;2022-11-20T12:17:17;5.50;99.90
10911;DHT22;5508;49.150;11.030;2022-11-20T12:20:19;5.50;99.90
10911;DHT22;5508;49.150;11.030;2022-11-20T12:27:23;5.30;99.90
10911;DHT22;5508;49.150;11.030;2022-11-20T12:30:26;5.10;99.90
10911;DHT22;5508;49.150;11.030;2022-11-20T12:39:48;4.90;99.90
10911;DHT22;5508;49.150;11.030;2022-11-20T12:43:01;4.90;99.90
10911;DHT22;5508;49.150;11.030;2022-11-20T12:59:57;4.90;99.90
10911;DHT22;5508;49.150;11.030;2022-11-20T13:03:38;4.80;99.90
10911;DHT22;5508;49.150;11.030;2022-11-20T13:06:40;4.80;99.90
10911;DHT22;5508;49.150;11.030;2022-11-20T13:09:47;4.80;99.90
10911;DHT22;5508;49.150;11.030;2022-11-20T13:16:35;4.80;99.90
10911;DHT22;5508;49.150;11.030;2022-11-20T13:19:37;4.90;99.90
10911;DHT22;5508;49.150;11.030;2022-11-20T13:22:45;4.80;99.90
10911;DHT22;5508;49.150;11.030;2022-11-20T13:25:46;4.90;99.90
10911;DHT22;5508;49.150;11.030;2022-11-20T13:29:02;4.80;99.90
10911;DHT22;5508;49.150;11.030;2022-11-20T13:32:06;4.90;99.90
10911;DHT22;5508;49.150;11.030;2022-11-20T13:35:09;4.90;99.90
10911;DHT22;5508;49.150;11.030;2022-11-20T13:38:13;4.90;99.90
10911;DHT22;5508;49.150;11.030;2022-11-20T13:41:53;4.90;99.90
10911;DHT22;5508;49.150;11.030;2022-11-20T13:44:54;4.90;99.90
10911;DHT22;5508;49.150;11.030;2022-11-20T13:47:56;4.90;99.90
10911;DHT22;5508;49.150;11.030;2022-11-20T13:51:28;4.90;99.90
10911;DHT22;5508;49.150;11.030;2022-11-20T13:58:21;4.90;99.90
10911;DHT22;5508;49.150;11.030;2022-11-20T14:01:26;4.90;99.90
10911;DHT22;5508;49.150;11.030;2022-11-20T14:04:35;5.00;99.90
10911;DHT22;5508;49.150;11.030;2022-11-20T14:07:41;4.90;99.90
10911;DHT22;5508;49.150;11.030;2022-11-20T14:10:42;4.90;99.90
10911;DHT22;5508;49.150;11.030;2022-11-20T14:13:53;4.90;99.90
10911;DHT22;5508;49.150;11.030;2022-11-20T14:17:35;4.90;99.90
10911;DHT22;5508;49.150;11.030;2022-11-20T14:20:34;4.90;99.90
10911;DHT22;5508;49.150;11.030;2022-11-20T14:23:37;5.00;99.90
10911;DHT22;5508;49.150;11.030;2022-11-20T14:26:43;4.90;99.90
10911;DHT22;5508;49.150;11.030;2022-11-20T14:29:46;4.90;99.90
10911;DHT22;5508;49.150;11.030;2022-11-20T14:32:48;5.00;99.90
10911;DHT22;5508;49.150;11.030;2022-11-20T14:35:54;5.00;99.90
10911;DHT22;5508;49.150;11.030;2022-11-20T14:38:55;5.10;99.90
10911;DHT22;5508;49.150;11.030;2022-11-20T14:41:56;5.20;99.90
10911;DHT22;5508;49.150;11.030;2022-11-20T14:44:58;5.20;99.90
10911;DHT22;5508;49.150;11.030;2022-11-20T14:47:59;5.20;99.90
10911;DHT22;5508;49.150;11.030;2022-11-20T14:51:00;5.20;99.90
10911;DHT22;5508;49.150;11.030;2022-11-20T14:54:16;5.10;99.90
10911;DHT22;5508;49.150;11.030;2022-11-20T14:57:24;5.10;99.90
10911;DHT22;5508;49.150;11.030;2022-11-20T15:00:27;5.20;99.90
10911;DHT22;5508;49.150;11.030;2022-11-20T15:03:35;5.10;99.90
10911;DHT22;5508;49.150;11.030;2022-11-20T15:06:37;5.00;99.90
10911;DHT22;5508;49.150;11.030;2022-11-20T15:09:37;4.90;99.90
10911;DHT22;5508;49.150;11.030;2022-11-20T15:12:45;4.90;99.90
10911;DHT22;5508;49.150;11.030;2022-11-20T15:15:51;4.90;99.90
10911;DHT22;5508;49.150;11.030;2022-11-20T15:18:52;4.80;99.90
10911;DHT22;5508;49.150;11.030;2022-11-20T15:21:53;4.80;99.90
10911;DHT22;5508;49.150;11.030;2022-11-20T15:24:53;4.70;99.90
10911;DHT22;5508;49.150;11.030;2022-11-20T15:27:56;4.60;99.90
10911;DHT22;5508;49.150;11.030;2022-11-20T15:30:57;4.50;99.90
10911;DHT22;5508;49.150;11.030;2022-11-20T15:33:57;4.50;99.90
10911;DHT22;5508;49.150;11.030;2022-11-20T15:36:58;4.40;99.90
10911;DHT22;5508;49.150;11.030;2022-11-20T15:39:59;4.30;99.90
10911;DHT22;5508;49.150;11.030;2022-11-20T15:42:59;4.20;99.90
10911;DHT22;5508;49.150;11.030;2022-11-20T15:46:10;4.10;99.90
10911;DHT22;5508;49.150;11.030;2022-11-20T15:49:16;3.90;99.90
10911;DHT22;5508;49.150;11.030;2022-11-20T15:52:19;3.80;99.90
10911;DHT22;5508;49.150;11.030;2022-11-20T15:55:19;3.80;99.90
10911;DHT22;5508;49.150;11.030;2022-11-20T15:58:20;3.70;99.90
10911;DHT22;5508;49.150;11.030;2022-11-20T16:01:23;3.80;99.90
10911;DHT22;5508;49.150;11.030;2022-11-20T16:04:23;3.70;99.90
10911;DHT22;5508;49.150;11.030;2022-11-20T16:07:24;3.70;99.90
10911;DHT22;5508;49.150;11.030;2022-11-20T16:10:24;3.60;99.90
10911;DHT22;5508;49.150;11.030;2022-11-20T16:13:25;3.50;99.90
10911;DHT22;5508;49.150;11.030;2022-11-20T16:16:44;3.50;99.90
10911;DHT22;5508;49.150;11.030;2022-11-20T16:19:45;3.50;99.90
10911;DHT22;5508;49.150;11.030;2022-11-20T16:22:45;3.50;99.90
10911;DHT22;5508;49.150;11.030;2022-11-20T16:25:47;3.40;99.90
10911;DHT22;5508;49.150;11.030;2022-11-20T16:28:48;3.40;99.90
10911;DHT22;5508;49.150;11.030;2022-11-20T16:31:48;3.30;99.90
10911;DHT22;5508;49.150;11.030;2022-11-20T16:34:49;3.30;99.90
10911;DHT22;5508;49.150;11.030;2022-11-20T16:37:50;3.20;99.90
10911;DHT22;5508;49.150;11.030;2022-11-20T16:40:50;3.10;99.90
10911;DHT22;5508;49.150;11.030;2022-11-20T16:43:53;3.00;99.90
10911;DHT22;5508;49.150;11.030;2022-11-20T16:46:54;3.00;99.90
10911;DHT22;5508;49.150;11.030;2022-11-20T16:49:56;2.90;99.90
10911;DHT22;5508;49.150;11.030;2022-11-20T16:52:57;2.90;99.90
10911;DHT22;5508;49.150;11.030;2022-11-20T16:56:11;2.90;99.90
10911;DHT22;5508;49.150;11.030;2022-11-20T16:59:12;2.80;99.90
10911;DHT22;5508;49.150;11.030;2022-11-20T17:02:13;2.90;99.90
10911;DHT22;5508;49.150;11.030;2022-11-20T17:05:14;2.90;99.90
10911;DHT22;5508;49.150;11.030;2022-11-20T17:08:14;2.90;99.90
10911;DHT22;5508;49.150;11.030;2022-11-20T17:11:17;2.80;99.90
10911;DHT22;5508;49.150;11.030;2022-11-20T17:14:18;2.90;99.90
10911;DHT22;5508;49.150;11.030;2022-11-20T17:17:19;2.90;99.90
10911;DHT22;5508;49.150;11.030;2022-11-20T17:20:19;2.80;99.90
10911;DHT22;5508;49.150;11.030;2022-11-20T17:23:20;2.70;99.90
10911;DHT22;5508;49.150;11.030;2022-11-20T17:26:22;2.60;99.90
10911;DHT22;5508;49.150;11.030;2022-11-20T17:29:23;2.50;99.90
10911;DHT22;5508;49.150;11.030;2022-11-20T17:32:23;2.50;99.90
10911;DHT22;5508;49.150;11.030;2022-11-20T17:35:24;2.40;99.90
10911;DHT22;5508;49.150;11.030;2022-11-20T17:38:25;2.50;99.90
10911;DHT22;5508;49.150;11.030;2022-11-20T17:41:27;2.50;99.90
10911;DHT22;5508;49.150;11.030;2022-11-20T17:44:28;2.50;99.90
10911;DHT22;5508;49.150;11.030;2022-11-20T17:47:29;2.40;99.90
10911;DHT22;5508;49.150;11.030;2022-11-20T17:50:29;2.50;99.90
10911;DHT22;5508;49.150;11.030;2022-11-20T17:53:37;2.50;99.90
10911;DHT22;5508;49.150;11.030;2022-11-20T17:56:37;2.60;99.90
10911;DHT22;5508;49.150;11.030;2022-11-20T17:59:57;2.50;99.90
10911;DHT22;5508;49.150;11.030;2022-11-20T18:02:57;2.50;99.90
10911;DHT22;5508;49.150;11.030;2022-11-20T18:05:58;2.40;99.90
10911;DHT22;5508;49.150;11.030;2022-11-20T18:09:06;2.30;99.90
10911;DHT22;5508;49.150;11.030;2022-11-20T18:12:07;2.40;99.90
10911;DHT22;5508;49.150;11.030;2022-11-20T18:15:08;2.40;99.90
10911;DHT22;5508;49.150;11.030;2022-11-20T18:18:08;2.50;99.90
10911;DHT22;5508;49.150;11.030;2022-11-20T18:21:09;2.40;99.90
10911;DHT22;5508;49.150;11.030;2022-11-20T18:24:10;2.40;99.90
10911;DHT22;5508;49.150;11.030;2022-11-20T18:27:16;2.40;99.90
10911;DHT22;5508;49.150;11.030;2022-11-20T18:30:17;2.30;99.90
10911;DHT22;5508;49.150;11.030;2022-11-20T18:33:17;2.30;99.90
10911;DHT22;5508;49.150;11.030;2022-11-20T18:36:21;2.40;99.90
10911;DHT22;5508;49.150;11.030;2022-11-20T18:39:22;2.40;99.90
10911;DHT22;5508;49.150;11.030;2022-11-20T18:42:23;2.40;99.90
10911;DHT22;5508;49.150;11.030;2022-11-20T18:45:42;2.40;99.90
10911;DHT22;5508;49.150;11.030;2022-11-20T18:48:43;2.40;99.90
10911;DHT22;5508;49.150;11.030;2022-11-20T18:51:43;2.30;99.90
10911;DHT22;5508;49.150;11.030;2022-11-20T18:54:44;2.40;99.90
10911;DHT22;5508;49.150;11.030;2022-11-20T18:57:44;2.40;99.90
10911;DHT22;5508;49.150;11.030;2022-11-20T19:00:45;2.40;99.90
10911;DHT22;5508;49.150;11.030;2022-11-20T19:03:45;2.40;99.90
10911;DHT22;5508;49.150;11.030;2022-11-20T19:06:46;2.40;99.90
10911;DHT22;5508;49.150;11.030;2022-11-20T19:09:52;2.50;99.90
10911;DHT22;5508;49.150;11.030;2022-11-20T19:12:53;2.50;99.90
10911;DHT22;5508;49.150;11.030;2022-11-20T19:15:53;2.50;99.90
10911;DHT22;5508;49.150;11.030;2022-11-20T19:18:54;2.50;99.90
10911;DHT22;5508;49.150;11.030;2022-11-20T19:21:55;2.50;99.90
10911;DHT22;5508;49.150;11.030;2022-11-20T19:24:55;2.40;99.90
10911;DHT22;5508;49.150;11.030;2022-11-20T19:27:56;2.30;99.90
10911;DHT22;5508;49.150;11.030;2022-11-20T19:31:21;2.20;99.90
10911;DHT22;5508;49.150;11.030;2022-11-20T19:34:22;2.20;99.90
10911;DHT22;5508;49.150;11.030;2022-11-20T19:37:22;2.20;99.90
10911;DHT22;5508;49.150;11.030;2022-11-20T19:40:24;2.20;99.90
10911;DHT22;5508;49.150;11.030;2022-11-20T19:43:25;2.20;99.90
10911;DHT22;5508;49.150;11.030;2022-11-20T19:46:27;2.20;99.90
10911;DHT22;5508;49.150;11.030;2022-11-20T19:49:27;2.20;99.90
10911;DHT22;5508;49.150;11.030;2022-11-20T19:52:28;2.20;99.90
10911;DHT22;5508;49.150;11.030;2022-11-20T19:55:29;2.30;99.90
10911;DHT22;5508;49.150;11.030;2022-11-20T19:58:29;2.30;99.90
10911;DHT22;5508;49.150;11.030;2022-11-20T20:01:30;2.30;99.90
10911;DHT22;5508;49.150;11.030;2022-11-20T20:04:31;2.30;99.90
10911;DHT22;5508;49.150;11.030;2022-11-20T20:07:31;2.30;99.90
10911;DHT22;5508;49.150;11.030;2022-11-20T20:10:32;2.40;99.90
10911;DHT22;5508;49.150;11.030;2022-11-20T20:13:32;2.40;99.90
10911;DHT22;5508;49.150;11.030;2022-11-20T20:16:33;2.40;99.90
10911;DHT22;5508;49.150;11.030;2022-11-20T20:19:34;2.50;99.90
10911;DHT22;5508;49.150;11.030;2022-11-20T20:22:35;2.60;99.90
10911;DHT22;5508;49.150;11.030;2022-11-20T20:25:36;2.60;99.90
10911;DHT22;5508;49.150;11.030;2022-11-20T20:28:38;2.60;99.90
10911;DHT22;5508;49.150;11.030;2022-11-20T20:31:39;2.70;99.90
10911;DHT22;5508;49.150;11.030;2022-11-20T20:34:39;2.70;99.90
10911;DHT22;5508;49.150;11.030;2022-11-20T20:37:40;2.70;99.90
10911;DHT22;5508;49.150;11.030;2022-11-20T20:40:48;2.80;99.90
10911;DHT22;5508;49.150;11.030;2022-11-20T20:43:52;2.90;99.90
10911;DHT22;5508;49.150;11.030;2022-11-20T20:47:11;2.90;99.90
10911;DHT22;5508;49.150;11.030;2022-11-20T20:50:12;3.00;99.90
10911;DHT22;5508;49.150;11.030;2022-11-20T20:53:13;3.00;99.90
10911;DHT22;5508;49.150;11.030;2022-11-20T20:56:13;3.10;99.90
10911;DHT22;5508;49.150;11.030;2022-11-20T20:59:14;3.30;99.90